sensor_id;sensor_type;location;lat;lon;timestamp;pressure;altitude;pressure_sealevel;temperature;humidity
73860;BME280;62197;51.632;13.700;2022-10-16T00:01:53;100026.69;;;12.78;100.00
73860;BME280;62197;51.632;13.700;2022-10-16T00:04:19;100031.44;;;12.83;100.00
73860;BME280;62197;51.632;13.700;2022-10-16T00:06:44;100039.78;;;12.88;100.00
73860;BME280;62197;51.632;13.700;2022-10-16T00:09:09;100047.00;;;12.89;100.00
73860;BME280;62197;51.632;13.700;2022-10-16T00:11:35;100044.22;;;12.89;100.00
73860;BME280;62197;51.632;13.700;2022-10-16T00:14:05;100050.84;;;12.83;100.00
73860;BME280;62197;51.632;13.700;2022-10-16T00:16:30;100027.53;;;12.79;100.00
73860;BME280;62197;51.632;13.700;2022-10-16T00:18:56;100048.00;;;12.78;100.00
73860;BME280;62197;51.632;13.700;2022-10-16T00:21:24;100051.91;;;12.77;100.00
73860;BME280;62197;51.632;13.700;2022-10-16T00:23:51;100054.69;;;12.82;100.00
73860;BME280;62197;51.632;13.700;2022-10-16T00:26:17;100058.59;;;12.86;100.00
73860;BME280;62197;51.632;13.700;2022-10-16T00:28:46;100049.69;;;12.79;100.00
73860;BME280;62197;51.632;13.700;2022-10-16T00:31:12;100052.69;;;12.72;100.00
73860;BME280;62197;51.632;13.700;2022-10-16T00:33:38;100053.50;;;12.67;100.00
73860;BME280;62197;51.632;13.700;2022-10-16T00:36:05;100061.22;;;12.65;100.00
73860;BME280;62197;51.632;13.700;2022-10-16T00:38:30;100067.53;;;12.56;100.00
73860;BME280;62197;51.632;13.700;2022-10-16T00:40:56;100068.34;;;12.56;100.00
73860;BME280;62197;51.632;13.700;2022-10-16T00:43:40;100062.41;;;12.43;100.00
73860;BME280;62197;51.632;13.700;2022-10-16T00:46:14;100047.94;;;12.31;100.00
73860;BME280;62197;51.632;13.700;2022-10-16T00:48:40;100058.72;;;12.32;100.00
73860;BME280;62197;51.632;13.700;2022-10-16T00:51:07;100054.25;;;12.26;100.00
73860;BME280;62197;51.632;13.700;2022-10-16T00:53:33;100065.28;;;12.21;100.00
73860;BME280;62197;51.632;13.700;2022-10-16T00:55:59;100061.13;;;12.24;100.00
73860;BME280;62197;51.632;13.700;2022-10-16T00:58:25;100051.84;;;12.08;100.00
73860;BME280;62197;51.632;13.700;2022-10-16T01:00:50;100063.38;;;12.00;100.00
73860;BME280;62197;51.632;13.700;2022-10-16T01:03:27;100063.88;;;11.92;100.00
73860;BME280;62197;51.632;13.700;2022-10-16T01:06:03;100069.53;;;11.81;100.00
73860;BME280;62197;51.632;13.700;2022-10-16T01:08:39;100068.16;;;11.83;100.00
73860;BME280;62197;51.632;13.700;2022-10-16T01:11:20;100073.44;;;11.85;100.00
73860;BME280;62197;51.632;13.700;2022-10-16T01:13:52;100076.09;;;11.74;100.00
73860;BME280;62197;51.632;13.700;2022-10-16T01:19:02;100067.78;;;11.53;100.00
73860;BME280;62197;51.632;13.700;2022-10-16T01:21:37;100066.50;;;11.60;100.00
73860;BME280;62197;51.632;13.700;2022-10-16T01:27:07;100073.84;;;11.71;100.00
73860;BME280;62197;51.632;13.700;2022-10-16T01:32:17;100078.03;;;11.74;100.00
73860;BME280;62197;51.632;13.700;2022-10-16T01:39:58;100084.75;;;11.83;100.00
73860;BME280;62197;51.632;13.700;2022-10-16T01:42:30;100081.31;;;11.71;100.00
73860;BME280;62197;51.632;13.700;2022-10-16T01:44:59;100086.84;;;11.71;100.00
73860;BME280;62197;51.632;13.700;2022-10-16T01:47:26;100088.81;;;11.75;100.00
73860;BME280;62197;51.632;13.700;2022-10-16T01:49:53;100094.16;;;11.82;100.00
73860;BME280;62197;51.632;13.700;2022-10-16T01:52:22;100092.47;;;11.81;100.00
73860;BME280;62197;51.632;13.700;2022-10-16T01:54:50;100085.28;;;11.80;100.00
73860;BME280;62197;51.632;13.700;2022-10-16T01:57:18;100084.19;;;11.81;100.00
73860;BME280;62197;51.632;13.700;2022-10-16T01:59:49;100088.66;;;11.87;100.00
73860;BME280;62197;51.632;13.700;2022-10-16T02:02:18;100096.19;;;11.92;100.00
73860;BME280;62197;51.632;13.700;2022-10-16T02:04:49;100094.06;;;11.99;100.00
73860;BME280;62197;51.632;13.700;2022-10-16T02:07:16;100097.63;;;11.94;100.00
73860;BME280;62197;51.632;13.700;2022-10-16T02:09:42;100087.06;;;11.91;100.00
73860;BME280;62197;51.632;13.700;2022-10-16T02:12:17;100093.22;;;11.98;100.00
73860;BME280;62197;51.632;13.700;2022-10-16T02:14:44;100099.28;;;11.95;100.00
73860;BME280;62197;51.632;13.700;2022-10-16T02:17:12;100094.00;;;11.94;100.00
73860;BME280;62197;51.632;13.700;2022-10-16T02:19:37;100093.78;;;12.00;100.00
73860;BME280;62197;51.632;13.700;2022-10-16T02:22:04;100101.34;;;11.83;100.00
73860;BME280;62197;51.632;13.700;2022-10-16T02:24:51;100093.84;;;11.78;100.00
73860;BME280;62197;51.632;13.700;2022-10-16T02:27:36;100102.75;;;11.86;100.00
73860;BME280;62197;51.632;13.700;2022-10-16T02:30:09;100103.94;;;11.68;100.00
73860;BME280;62197;51.632;13.700;2022-10-16T02:32:40;100120.50;;;11.68;100.00
73860;BME280;62197;51.632;13.700;2022-10-16T02:35:07;100111.25;;;11.79;100.00
73860;BME280;62197;51.632;13.700;2022-10-16T02:37:34;100115.25;;;11.88;100.00
73860;BME280;62197;51.632;13.700;2022-10-16T02:40:00;100114.53;;;11.98;100.00
73860;BME280;62197;51.632;13.700;2022-10-16T02:42:34;100104.84;;;12.00;100.00
73860;BME280;62197;51.632;13.700;2022-10-16T02:45:00;100111.81;;;12.03;100.00
73860;BME280;62197;51.632;13.700;2022-10-16T02:47:25;100112.69;;;12.08;100.00
73860;BME280;62197;51.632;13.700;2022-10-16T02:49:50;100108.38;;;12.17;100.00
73860;BME280;62197;51.632;13.700;2022-10-16T02:52:15;100108.38;;;12.17;100.00
73860;BME280;62197;51.632;13.700;2022-10-16T02:54:41;100111.19;;;12.22;100.00
73860;BME280;62197;51.632;13.700;2022-10-16T02:57:06;100103.94;;;12.16;100.00
73860;BME280;62197;51.632;13.700;2022-10-16T02:59:31;100103.47;;;12.24;100.00
73860;BME280;62197;51.632;13.700;2022-10-16T03:01:57;100105.09;;;12.20;100.00
73860;BME280;62197;51.632;13.700;2022-10-16T03:04:22;100109.00;;;12.24;100.00
73860;BME280;62197;51.632;13.700;2022-10-16T03:06:47;100109.00;;;12.24;100.00
73860;BME280;62197;51.632;13.700;2022-10-16T03:09:12;100103.47;;;12.24;100.00
73860;BME280;62197;51.632;13.700;2022-10-16T03:11:38;100111.88;;;12.34;100.00
73860;BME280;62197;51.632;13.700;2022-10-16T03:14:03;100113.59;;;12.40;100.00
73860;BME280;62197;51.632;13.700;2022-10-16T03:16:28;100118.78;;;12.37;100.00
73860;BME280;62197;51.632;13.700;2022-10-16T03:18:54;100120.91;;;12.51;100.00
73860;BME280;62197;51.632;13.700;2022-10-16T03:21:19;100119.84;;;12.57;100.00
73860;BME280;62197;51.632;13.700;2022-10-16T03:23:44;100108.88;;;12.41;100.00
73860;BME280;62197;51.632;13.700;2022-10-16T03:26:10;100118.00;;;12.36;100.00
73860;BME280;62197;51.632;13.700;2022-10-16T03:28:35;100121.09;;;12.45;100.00
73860;BME280;62197;51.632;13.700;2022-10-16T03:31:01;100127.50;;;12.50;100.00
73860;BME280;62197;51.632;13.700;2022-10-16T03:33:26;100116.38;;;12.40;100.00
73860;BME280;62197;51.632;13.700;2022-10-16T03:35:53;100132.50;;;12.48;100.00
73860;BME280;62197;51.632;13.700;2022-10-16T03:38:19;100132.25;;;12.50;100.00
73860;BME280;62197;51.632;13.700;2022-10-16T03:40:44;100148.88;;;12.55;100.00
73860;BME280;62197;51.632;13.700;2022-10-16T03:43:10;100152.50;;;12.55;100.00
73860;BME280;62197;51.632;13.700;2022-10-16T03:45:35;100149.72;;;12.55;100.00
73860;BME280;62197;51.632;13.700;2022-10-16T03:48:00;100160.50;;;12.52;100.00
73860;BME280;62197;51.632;13.700;2022-10-16T03:50:27;100156.31;;;12.49;100.00
73860;BME280;62197;51.632;13.700;2022-10-16T03:52:52;100147.38;;;12.42;100.00
73860;BME280;62197;51.632;13.700;2022-10-16T03:55:18;100146.75;;;12.35;100.00
73860;BME280;62197;51.632;13.700;2022-10-16T03:57:43;100148.47;;;12.41;100.00
73860;BME280;62197;51.632;13.700;2022-10-16T04:00:09;100155.25;;;12.55;100.00
73860;BME280;62197;51.632;13.700;2022-10-16T04:02:34;100151.47;;;12.66;100.00
73860;BME280;62197;51.632;13.700;2022-10-16T04:05:00;100155.13;;;12.72;100.00
73860;BME280;62197;51.632;13.700;2022-10-16T04:07:25;100162.63;;;12.72;100.00
73860;BME280;62197;51.632;13.700;2022-10-16T04:09:50;100170.38;;;12.75;100.00
73860;BME280;62197;51.632;13.700;2022-10-16T04:12:17;100169.53;;;12.74;100.00
73860;BME280;62197;51.632;13.700;2022-10-16T04:14:42;100181.16;;;12.71;100.00
73860;BME280;62197;51.632;13.700;2022-10-16T04:17:08;100169.34;;;12.81;100.00
73860;BME280;62197;51.632;13.700;2022-10-16T04:19:33;100171.53;;;12.79;100.00
73860;BME280;62197;51.632;13.700;2022-10-16T04:21:58;100170.41;;;12.80;100.00
73860;BME280;62197;51.632;13.700;2022-10-16T04:24:24;100172.72;;;12.88;100.00
73860;BME280;62197;51.632;13.700;2022-10-16T04:26:49;100179.41;;;12.92;100.00
73860;BME280;62197;51.632;13.700;2022-10-16T04:29:14;100160.56;;;12.89;100.00
73860;BME280;62197;51.632;13.700;2022-10-16T04:31:40;100165.78;;;12.85;100.00
73860;BME280;62197;51.632;13.700;2022-10-16T04:34:05;100168.19;;;12.77;100.00
73860;BME280;62197;51.632;13.700;2022-10-16T04:36:30;100161.25;;;12.74;100.00
73860;BME280;62197;51.632;13.700;2022-10-16T04:38:56;100163.75;;;12.76;100.00
73860;BME280;62197;51.632;13.700;2022-10-16T04:41:21;100163.69;;;12.70;100.00
73860;BME280;62197;51.632;13.700;2022-10-16T04:43:46;100160.97;;;12.76;100.00
73860;BME280;62197;51.632;13.700;2022-10-16T04:46:12;100164.31;;;12.78;100.00
73860;BME280;62197;51.632;13.700;2022-10-16T04:48:37;100168.72;;;12.74;100.00
73860;BME280;62197;51.632;13.700;2022-10-16T04:51:02;100174.03;;;12.80;100.00
73860;BME280;62197;51.632;13.700;2022-10-16T04:53:28;100170.38;;;12.75;100.00
73860;BME280;62197;51.632;13.700;2022-10-16T04:55:53;100178.69;;;12.75;100.00
73860;BME280;62197;51.632;13.700;2022-10-16T04:58:18;100177.28;;;12.72;100.00
73860;BME280;62197;51.632;13.700;2022-10-16T05:00:44;100188.16;;;12.79;100.00
73860;BME280;62197;51.632;13.700;2022-10-16T05:03:12;100173.13;;;12.69;100.00
73860;BME280;62197;51.632;13.700;2022-10-16T05:05:42;100179.16;;;12.66;100.00
73860;BME280;62197;51.632;13.700;2022-10-16T05:08:12;100164.06;;;12.52;100.00
73860;BME280;62197;51.632;13.700;2022-10-16T05:10:41;100187.28;;;12.46;100.00
73860;BME280;62197;51.632;13.700;2022-10-16T05:13:07;100181.22;;;12.49;100.00
73860;BME280;62197;51.632;13.700;2022-10-16T05:15:33;100186.72;;;12.44;100.00
73860;BME280;62197;51.632;13.700;2022-10-16T05:17:58;100191.72;;;12.47;100.00
73860;BME280;62197;51.632;13.700;2022-10-16T05:20:23;100199.25;;;12.52;100.00
73860;BME280;62197;51.632;13.700;2022-10-16T05:22:49;100208.94;;;12.54;100.00
73860;BME280;62197;51.632;13.700;2022-10-16T05:25:14;100201.75;;;12.53;100.00
73860;BME280;62197;51.632;13.700;2022-10-16T05:27:39;100193.78;;;12.35;100.00
73860;BME280;62197;51.632;13.700;2022-10-16T05:30:05;100208.06;;;12.27;100.00
73860;BME280;62197;51.632;13.700;2022-10-16T05:32:31;100200.88;;;12.26;100.00
73860;BME280;62197;51.632;13.700;2022-10-16T05:34:56;100209.69;;;12.23;100.00
73860;BME280;62197;51.632;13.700;2022-10-16T05:37:24;100199.19;;;12.25;100.00
73860;BME280;62197;51.632;13.700;2022-10-16T05:39:49;100200.75;;;12.16;100.00
73860;BME280;62197;51.632;13.700;2022-10-16T05:42:14;100204.06;;;12.13;100.00
73860;BME280;62197;51.632;13.700;2022-10-16T05:44:40;100215.34;;;12.12;100.00
73860;BME280;62197;51.632;13.700;2022-10-16T05:47:05;100225.06;;;12.14;100.00
73860;BME280;62197;51.632;13.700;2022-10-16T05:49:31;100235.50;;;12.07;100.00
73860;BME280;62197;51.632;13.700;2022-10-16T05:51:56;100230.03;;;12.12;100.00
73860;BME280;62197;51.632;13.700;2022-10-16T05:54:21;100239.44;;;12.11;100.00
73860;BME280;62197;51.632;13.700;2022-10-16T05:56:46;100226.09;;;12.08;100.00
73860;BME280;62197;51.632;13.700;2022-10-16T05:59:12;100223.91;;;12.10;100.00
73860;BME280;62197;51.632;13.700;2022-10-16T06:01:37;100233.63;;;12.13;100.00
73860;BME280;62197;51.632;13.700;2022-10-16T06:04:02;100239.63;;;12.26;100.00
73860;BME280;62197;51.632;13.700;2022-10-16T06:06:28;100234.44;;;12.83;100.00
73860;BME280;62197;51.632;13.700;2022-10-16T06:08:55;100242.72;;;13.36;100.00
73860;BME280;62197;51.632;13.700;2022-10-16T06:11:26;100247.59;;;13.61;100.00
73860;BME280;62197;51.632;13.700;2022-10-16T06:13:53;100239.16;;;13.83;100.00
73860;BME280;62197;51.632;13.700;2022-10-16T06:16:18;100248.63;;;13.92;100.00
73860;BME280;62197;51.632;13.700;2022-10-16T06:18:44;100248.50;;;13.72;100.00
73860;BME280;62197;51.632;13.700;2022-10-16T06:21:16;100250.00;;;13.89;100.00
73860;BME280;62197;51.632;13.700;2022-10-16T06:23:42;100253.75;;;13.68;100.00
73860;BME280;62197;51.632;13.700;2022-10-16T06:26:13;100253.00;;;13.83;100.00
73860;BME280;62197;51.632;13.700;2022-10-16T06:28:39;100255.78;;;13.41;100.00
73860;BME280;62197;51.632;13.700;2022-10-16T06:31:06;100255.59;;;13.21;100.00
73860;BME280;62197;51.632;13.700;2022-10-16T06:33:31;100257.13;;;13.07;100.00
73860;BME280;62197;51.632;13.700;2022-10-16T06:36:08;100264.97;;;13.15;100.00
73860;BME280;62197;51.632;13.700;2022-10-16T06:38:34;100248.47;;;13.30;100.00
73860;BME280;62197;51.632;13.700;2022-10-16T06:40:59;100254.19;;;13.50;100.00
73860;BME280;62197;51.632;13.700;2022-10-16T06:43:25;100260.28;;;13.52;100.00
73860;BME280;62197;51.632;13.700;2022-10-16T06:45:54;100270.53;;;13.51;100.00
73860;BME280;62197;51.632;13.700;2022-10-16T06:48:21;100274.47;;;13.55;100.00
73860;BME280;62197;51.632;13.700;2022-10-16T06:50:58;100274.47;;;13.55;100.00
73860;BME280;62197;51.632;13.700;2022-10-16T06:53:24;100282.63;;;13.72;100.00
73860;BME280;62197;51.632;13.700;2022-10-16T06:55:50;100283.88;;;13.96;100.00
73860;BME280;62197;51.632;13.700;2022-10-16T06:58:15;100276.78;;;14.15;100.00
73860;BME280;62197;51.632;13.700;2022-10-16T07:00:40;100281.25;;;14.21;100.00
73860;BME280;62197;51.632;13.700;2022-10-16T07:03:06;100279.19;;;14.43;100.00
73860;BME280;62197;51.632;13.700;2022-10-16T07:05:31;100287.56;;;14.59;99.93
73860;BME280;62197;51.632;13.700;2022-10-16T07:07:56;100281.78;;;14.75;99.03
73860;BME280;62197;51.632;13.700;2022-10-16T07:10:22;100285.19;;;14.92;98.22
73860;BME280;62197;51.632;13.700;2022-10-16T07:12:49;100276.59;;;15.09;97.59
73860;BME280;62197;51.632;13.700;2022-10-16T07:15:14;100282.44;;;15.12;97.41
73860;BME280;62197;51.632;13.700;2022-10-16T07:17:40;100291.88;;;15.21;96.08
73860;BME280;62197;51.632;13.700;2022-10-16T07:20:05;100288.84;;;15.23;96.43
73860;BME280;62197;51.632;13.700;2022-10-16T07:22:31;100299.97;;;15.23;95.80
73860;BME280;62197;51.632;13.700;2022-10-16T07:24:56;100292.44;;;15.18;96.02
73860;BME280;62197;51.632;13.700;2022-10-16T07:27:22;100296.34;;;15.17;97.10
73860;BME280;62197;51.632;13.700;2022-10-16T07:29:49;100305.50;;;15.13;97.52
73860;BME280;62197;51.632;13.700;2022-10-16T07:32:14;100314.41;;;15.15;97.17
73860;BME280;62197;51.632;13.700;2022-10-16T07:34:39;100321.38;;;15.22;97.31
73860;BME280;62197;51.632;13.700;2022-10-16T07:37:05;100317.22;;;15.25;97.68
73860;BME280;62197;51.632;13.700;2022-10-16T07:39:30;100315.25;;;15.25;97.63
73860;BME280;62197;51.632;13.700;2022-10-16T07:41:56;100329.16;;;15.30;97.49
73860;BME280;62197;51.632;13.700;2022-10-16T07:44:21;100319.16;;;15.34;97.92
73860;BME280;62197;51.632;13.700;2022-10-16T07:46:46;100333.63;;;15.36;97.59
73860;BME280;62197;51.632;13.700;2022-10-16T07:49:12;100327.78;;;15.38;96.98
73860;BME280;62197;51.632;13.700;2022-10-16T07:51:37;100328.34;;;15.40;96.84
73860;BME280;62197;51.632;13.700;2022-10-16T07:54:03;100333.94;;;15.45;96.03
73860;BME280;62197;51.632;13.700;2022-10-16T07:56:30;100332.28;;;15.59;95.76
73860;BME280;62197;51.632;13.700;2022-10-16T07:58:56;100315.00;;;15.62;95.65
73860;BME280;62197;51.632;13.700;2022-10-16T08:01:22;100319.75;;;15.72;94.40
73860;BME280;62197;51.632;13.700;2022-10-16T08:03:49;100316.94;;;16.02;93.76
73860;BME280;62197;51.632;13.700;2022-10-16T08:06:15;100322.44;;;16.37;91.98
73860;BME280;62197;51.632;13.700;2022-10-16T08:08:40;100324.25;;;16.82;91.35
73860;BME280;62197;51.632;13.700;2022-10-16T08:11:06;100328.81;;;17.17;87.61
73860;BME280;62197;51.632;13.700;2022-10-16T08:13:31;100330.59;;;17.41;85.31
73860;BME280;62197;51.632;13.700;2022-10-16T08:15:57;100328.31;;;17.53;86.25
73860;BME280;62197;51.632;13.700;2022-10-16T08:18:23;100340.88;;;17.46;85.52
73860;BME280;62197;51.632;13.700;2022-10-16T08:20:55;100341.03;;;17.64;85.14
73860;BME280;62197;51.632;13.700;2022-10-16T08:23:21;100349.16;;;17.94;84.45
73860;BME280;62197;51.632;13.700;2022-10-16T08:25:46;100343.00;;;17.97;82.78
73860;BME280;62197;51.632;13.700;2022-10-16T08:28:11;100337.59;;;18.06;83.75
73860;BME280;62197;51.632;13.700;2022-10-16T08:30:37;100352.41;;;18.07;83.17
73860;BME280;62197;51.632;13.700;2022-10-16T08:33:03;100350.44;;;17.78;83.52
73860;BME280;62197;51.632;13.700;2022-10-16T08:35:28;100334.91;;;17.62;85.36
73860;BME280;62197;51.632;13.700;2022-10-16T08:37:53;100336.59;;;17.63;83.99
73860;BME280;62197;51.632;13.700;2022-10-16T08:40:22;100358.75;;;17.50;85.54
73860;BME280;62197;51.632;13.700;2022-10-16T08:48:37;100388.72;;;17.24;85.90
73860;BME280;62197;51.632;13.700;2022-10-16T08:51:07;100383.59;;;17.41;86.28
73860;BME280;62197;51.632;13.700;2022-10-16T08:53:46;100374.03;;;17.57;86.39
73860;BME280;62197;51.632;13.700;2022-10-16T08:56:14;100388.25;;;17.61;85.07
73860;BME280;62197;51.632;13.700;2022-10-16T08:58:39;100390.28;;;17.84;84.26
73860;BME280;62197;51.632;13.700;2022-10-16T09:01:11;100392.91;;;18.04;83.00
73860;BME280;62197;51.632;13.700;2022-10-16T09:04:22;100401.72;;;18.21;83.56
73860;BME280;62197;51.632;13.700;2022-10-16T09:07:05;100398.84;;;18.26;82.30
73860;BME280;62197;51.632;13.700;2022-10-16T09:17:58;100392.09;;;19.69;76.05
73860;BME280;62197;51.632;13.700;2022-10-16T09:20:41;100402.00;;;19.61;76.07
73860;BME280;62197;51.632;13.700;2022-10-16T09:25:43;100397.41;;;19.52;76.52
73860;BME280;62197;51.632;13.700;2022-10-16T09:28:09;100412.44;;;19.74;74.29
73860;BME280;62197;51.632;13.700;2022-10-16T09:30:35;100408.31;;;19.72;73.60
73860;BME280;62197;51.632;13.700;2022-10-16T09:33:01;100410.72;;;19.78;73.73
73860;BME280;62197;51.632;13.700;2022-10-16T09:37:57;100398.66;;;19.97;73.57
73860;BME280;62197;51.632;13.700;2022-10-16T09:40:31;100405.84;;;20.03;73.46
73860;BME280;62197;51.632;13.700;2022-10-16T09:43:25;100416.63;;;19.77;72.71
73860;BME280;62197;51.632;13.700;2022-10-16T09:45:58;100401.88;;;19.53;73.13
73860;BME280;62197;51.632;13.700;2022-10-16T09:48:28;100424.25;;;19.71;72.42
73860;BME280;62197;51.632;13.700;2022-10-16T09:50:58;100432.44;;;19.87;72.23
73860;BME280;62197;51.632;13.700;2022-10-16T09:53:26;100428.19;;;19.70;72.33
73860;BME280;62197;51.632;13.700;2022-10-16T09:56:02;100434.13;;;19.88;72.01
73860;BME280;62197;51.632;13.700;2022-10-16T09:58:30;100423.97;;;19.73;73.10
73860;BME280;62197;51.632;13.700;2022-10-16T10:00:58;100424.72;;;19.41;73.89
73860;BME280;62197;51.632;13.700;2022-10-16T10:03:33;100428.84;;;19.20;74.96
73860;BME280;62197;51.632;13.700;2022-10-16T10:06:05;100428.50;;;19.03;75.19
73860;BME280;62197;51.632;13.700;2022-10-16T10:08:31;100426.34;;;19.00;75.23
73860;BME280;62197;51.632;13.700;2022-10-16T10:10:57;100429.00;;;19.10;75.04
73860;BME280;62197;51.632;13.700;2022-10-16T10:13:24;100415.03;;;19.10;73.93
73860;BME280;62197;51.632;13.700;2022-10-16T10:15:50;100420.66;;;19.29;74.17
73860;BME280;62197;51.632;13.700;2022-10-16T10:18:20;100435.91;;;19.41;73.61
73860;BME280;62197;51.632;13.700;2022-10-16T10:20:57;100443.16;;;19.42;73.17
73860;BME280;62197;51.632;13.700;2022-10-16T10:23:25;100437.03;;;20.15;71.43
73860;BME280;62197;51.632;13.700;2022-10-16T10:26:11;100431.72;;;20.91;67.42
73860;BME280;62197;51.632;13.700;2022-10-16T10:31:36;100446.56;;;20.14;69.38
73860;BME280;62197;51.632;13.700;2022-10-16T10:36:45;100450.75;;;19.60;71.03
73860;BME280;62197;51.632;13.700;2022-10-16T10:39:48;100457.19;;;19.79;70.52
73860;BME280;62197;51.632;13.700;2022-10-16T10:42:30;100457.63;;;19.87;71.33
73860;BME280;62197;51.632;13.700;2022-10-16T10:45:16;100471.50;;;19.97;71.50
73860;BME280;62197;51.632;13.700;2022-10-16T10:50:31;100470.72;;;19.72;72.56
73860;BME280;62197;51.632;13.700;2022-10-16T10:56:10;100441.97;;;19.48;72.83
73860;BME280;62197;51.632;13.700;2022-10-16T11:01:14;100444.31;;;19.78;72.32
73860;BME280;62197;51.632;13.700;2022-10-16T11:04:10;100451.34;;;19.95;71.73
73860;BME280;62197;51.632;13.700;2022-10-16T11:06:44;100455.91;;;19.91;72.53
73860;BME280;62197;51.632;13.700;2022-10-16T11:09:16;100457.13;;;20.22;71.13
73860;BME280;62197;51.632;13.700;2022-10-16T11:12:13;100455.00;;;20.78;69.21
73860;BME280;62197;51.632;13.700;2022-10-16T11:14:48;100451.13;;;20.28;70.11
73860;BME280;62197;51.632;13.700;2022-10-16T11:17:28;100466.94;;;20.01;72.11
73860;BME280;62197;51.632;13.700;2022-10-16T11:22:45;100459.06;;;19.84;72.58
73860;BME280;62197;51.632;13.700;2022-10-16T11:25:20;100464.91;;;19.69;72.57
73860;BME280;62197;51.632;13.700;2022-10-16T11:27:51;100471.41;;;19.83;72.55
73860;BME280;62197;51.632;13.700;2022-10-16T11:30:22;100465.28;;;20.00;72.17
73860;BME280;62197;51.632;13.700;2022-10-16T11:35:47;100463.28;;;20.83;69.44
73860;BME280;62197;51.632;13.700;2022-10-16T11:41:00;100463.78;;;20.26;70.93
73860;BME280;62197;51.632;13.700;2022-10-16T11:43:35;100475.56;;;20.41;70.85
73860;BME280;62197;51.632;13.700;2022-10-16T11:46:10;100463.47;;;20.73;69.80
73860;BME280;62197;51.632;13.700;2022-10-16T11:48:50;100459.34;;;20.71;69.60
73860;BME280;62197;51.632;13.700;2022-10-16T11:51:24;100458.00;;;20.36;71.47
73860;BME280;62197;51.632;13.700;2022-10-16T11:54:04;100465.44;;;20.27;71.60
73860;BME280;62197;51.632;13.700;2022-10-16T11:56:37;100462.56;;;20.32;71.49
73860;BME280;62197;51.632;13.700;2022-10-16T11:59:10;100460.44;;;20.24;72.00
73860;BME280;62197;51.632;13.700;2022-10-16T12:04:33;100462.97;;;20.39;70.87
73860;BME280;62197;51.632;13.700;2022-10-16T12:07:05;100486.63;;;20.33;71.35
73860;BME280;62197;51.632;13.700;2022-10-16T12:09:34;100481.66;;;20.30;71.80
73860;BME280;62197;51.632;13.700;2022-10-16T12:12:01;100479.25;;;20.55;71.12
73860;BME280;62197;51.632;13.700;2022-10-16T12:16:53;100479.47;;;21.18;68.85
73860;BME280;62197;51.632;13.700;2022-10-16T12:19:20;100482.91;;;21.02;69.26
73860;BME280;62197;51.632;13.700;2022-10-16T12:21:46;100477.63;;;20.82;70.04
73860;BME280;62197;51.632;13.700;2022-10-16T12:24:44;100485.22;;;20.95;69.49
73860;BME280;62197;51.632;13.700;2022-10-16T12:27:27;100489.25;;;20.75;70.22
73860;BME280;62197;51.632;13.700;2022-10-16T12:29:56;100488.66;;;20.78;70.33
73860;BME280;62197;51.632;13.700;2022-10-16T12:32:32;100499.66;;;20.75;70.58
73860;BME280;62197;51.632;13.700;2022-10-16T12:35:02;100486.53;;;20.70;70.03
73860;BME280;62197;51.632;13.700;2022-10-16T12:37:30;100488.47;;;20.88;70.11
73860;BME280;62197;51.632;13.700;2022-10-16T12:39:57;100483.97;;;21.19;68.55
73860;BME280;62197;51.632;13.700;2022-10-16T12:44:52;100483.13;;;21.32;67.92
73860;BME280;62197;51.632;13.700;2022-10-16T12:47:23;100493.31;;;21.15;68.02
73860;BME280;62197;51.632;13.700;2022-10-16T12:49:54;100487.19;;;21.26;67.47
73860;BME280;62197;51.632;13.700;2022-10-16T12:52:28;100496.22;;;21.23;66.71
73860;BME280;62197;51.632;13.700;2022-10-16T12:54:57;100491.97;;;20.80;68.04
73860;BME280;62197;51.632;13.700;2022-10-16T12:58:06;100511.50;;;20.85;68.43
73860;BME280;62197;51.632;13.700;2022-10-16T13:03:54;100526.94;;;20.37;71.39
73860;BME280;62197;51.632;13.700;2022-10-16T13:07:17;100524.56;;;20.07;71.95
73860;BME280;62197;51.632;13.700;2022-10-16T13:09:29;100526.31;;;20.03;71.35
73860;BME280;62197;51.632;13.700;2022-10-16T13:15:07;100518.13;;;20.76;69.13
73860;BME280;62197;51.632;13.700;2022-10-16T13:21:07;100523.97;;;21.66;66.05
73860;BME280;62197;51.632;13.700;2022-10-16T13:24:15;100519.69;;;21.54;65.95
73860;BME280;62197;51.632;13.700;2022-10-16T13:27:13;100519.28;;;21.20;66.98
73860;BME280;62197;51.632;13.700;2022-10-16T13:29:43;100517.72;;;21.14;67.53
73860;BME280;62197;51.632;13.700;2022-10-16T13:32:11;100521.03;;;21.03;67.19
73860;BME280;62197;51.632;13.700;2022-10-16T13:34:48;100529.59;;;20.93;67.65
73860;BME280;62197;51.632;13.700;2022-10-16T13:37:18;100529.66;;;21.06;68.71
73860;BME280;62197;51.632;13.700;2022-10-16T13:39:44;100524.59;;;21.22;67.37
73860;BME280;62197;51.632;13.700;2022-10-16T13:42:20;100536.63;;;22.04;64.68
73860;BME280;62197;51.632;13.700;2022-10-16T13:44:50;100531.78;;;24.41;57.12
73860;BME280;62197;51.632;13.700;2022-10-16T13:47:21;100542.50;;;23.49;59.13
73860;BME280;62197;51.632;13.700;2022-10-16T13:49:59;100527.16;;;24.37;56.74
73860;BME280;62197;51.632;13.700;2022-10-16T13:52:24;100535.34;;;25.65;53.62
73860;BME280;62197;51.632;13.700;2022-10-16T13:54:50;100531.31;;;26.65;50.74
73860;BME280;62197;51.632;13.700;2022-10-16T13:57:17;100534.19;;;26.86;48.99
73860;BME280;62197;51.632;13.700;2022-10-16T13:59:42;100530.59;;;26.56;49.41